Time;durP1;ratioP1;P1;durP2;ratioP2;P2;SDS_P1;SDS_P2;PMS_P1;PMS_P2;Temp;Humidity;BMP_temperature;BMP_pressure;BME280_temperature;BME280_humidity;BME280_pressure;Samples;Min_cycle;Max_cycle;Signal;HPM_P1;HPM_P2
2023/01/03 00:01:42;;;;;;;;;;;10.10;99.90;;;;;;4997572;28;19930;-76
2023/01/03 00:04:08;;;;;;;;;;;10.00;99.90;;;;;;4997454;28;20551;-76
2023/01/03 00:06:37;;;;;;;;;;;10.00;99.90;;;;;;4998805;28;19938;-76
2023/01/03 00:09:05;;;;;;;;;;;10.00;99.90;;;;;;5002476;28;20049;-76
2023/01/03 00:14:18;;;;;;;;;;;10.00;99.90;;;;;;4995143;28;20015;-76
2023/01/03 00:16:45;;;;;;;;;;;9.90;99.90;;;;;;4997605;28;19936;-75
2023/01/03 00:19:13;;;;;;;;;;;9.90;99.90;;;;;;5002936;28;19937;-77
2023/01/03 00:21:42;;;;;;;;;;;9.90;99.90;;;;;;4995834;28;19929;-76
2023/01/03 00:24:08;;;;;;;;;;;9.90;99.90;;;;;;4998549;28;19944;-76
2023/01/03 00:26:35;;;;;;;;;;;9.90;99.90;;;;;;5001073;28;19957;-75
2023/01/03 00:29:02;;;;;;;;;;;9.90;99.90;;;;;;5004421;28;19933;-75
2023/01/03 00:31:29;;;;;;;;;;;9.80;99.90;;;;;;4998910;28;19940;-76
2023/01/03 00:33:55;;;;;;;;;;;9.80;99.90;;;;;;4999383;28;19937;-76
2023/01/03 00:36:22;;;;;;;;;;;9.80;99.90;;;;;;4999772;28;20434;-76
2023/01/03 00:38:50;;;;;;;;;;;9.80;99.90;;;;;;4998879;28;19936;-77
2023/01/03 00:41:17;;;;;;;;;;;9.80;99.90;;;;;;4995462;28;19941;-77
2023/01/03 00:43:45;;;;;;;;;;;9.80;99.90;;;;;;4996607;28;19936;-77
2023/01/03 00:46:12;;;;;;;;;;;9.70;99.90;;;;;;4995136;28;19940;-76
2023/01/03 00:48:39;;;;;;;;;;;9.70;99.90;;;;;;4995301;28;19944;-76
2023/01/03 00:51:06;;;;;;;;;;;9.70;99.90;;;;;;4997176;28;19941;-76
2023/01/03 00:53:33;;;;;;;;;;;9.70;99.90;;;;;;4996663;28;20012;-76
2023/01/03 00:56:03;;;;;;;;;;;9.70;99.90;;;;;;4995489;28;19929;-75
2023/01/03 00:58:29;;;;;;;;;;;9.70;99.90;;;;;;4989098;28;19960;-76
2023/01/03 01:00:56;;;;;;;;;;;9.60;99.90;;;;;;4995955;28;19933;-77
2023/01/03 01:03:23;;;;;;;;;;;9.60;99.90;;;;;;4991635;28;19930;-77
2023/01/03 01:05:49;;;;;;;;;;;9.60;99.90;;;;;;4992275;28;19934;-76
2023/01/03 01:08:16;;;;;;;;;;;9.60;99.90;;;;;;4996066;28;19984;-76
2023/01/03 01:11:00;;;;;;;;;;;9.50;99.90;;;;;;4994815;28;20052;-77
2023/01/03 01:13:28;;;;;;;;;;;9.60;99.90;;;;;;4995172;28;20383;-74
2023/01/03 01:15:55;;;;;;;;;;;9.60;99.90;;;;;;4993908;28;19940;-77
2023/01/03 01:18:21;;;;;;;;;;;9.60;99.90;;;;;;4996697;28;19940;-77
2023/01/03 01:20:48;;;;;;;;;;;9.50;99.90;;;;;;4998667;28;19933;-77
2023/01/03 01:23:14;;;;;;;;;;;9.50;99.90;;;;;;4996041;28;19959;-75
2023/01/03 01:25:41;;;;;;;;;;;9.50;99.90;;;;;;4994171;28;20053;-76
2023/01/03 01:28:08;;;;;;;;;;;9.50;99.90;;;;;;4993752;28;20051;-75
2023/01/03 01:30:36;;;;;;;;;;;9.50;99.90;;;;;;5001712;28;20024;-75
2023/01/03 01:33:03;;;;;;;;;;;9.40;99.90;;;;;;5002539;28;19937;-76
2023/01/03 01:35:29;;;;;;;;;;;9.40;99.90;;;;;;5000906;28;19938;-76
2023/01/03 01:37:56;;;;;;;;;;;9.40;99.90;;;;;;4998233;28;19936;-77
2023/01/03 01:40:22;;;;;;;;;;;9.40;99.90;;;;;;5005929;28;19936;-77
2023/01/03 01:45:46;;;;;;;;;;;9.40;99.90;;;;;;4957131;28;20052;-75
2023/01/03 01:48:13;;;;;;;;;;;9.40;99.90;;;;;;4986522;28;20397;-77
2023/01/03 01:50:41;;;;;;;;;;;9.30;99.90;;;;;;5000534;28;20468;-77
2023/01/03 01:53:11;;;;;;;;;;;9.30;99.90;;;;;;5002303;28;19933;-76
2023/01/03 01:55:39;;;;;;;;;;;9.30;99.90;;;;;;4999651;28;19933;-76
2023/01/03 01:58:06;;;;;;;;;;;9.30;99.90;;;;;;4997721;28;19930;-75
2023/01/03 02:00:32;;;;;;;;;;;9.30;99.90;;;;;;5000624;28;19956;-75
2023/01/03 02:03:00;;;;;;;;;;;9.30;99.90;;;;;;4997670;28;19929;-75
2023/01/03 02:05:27;;;;;;;;;;;9.30;99.90;;;;;;4997814;28;20428;-77
2023/01/03 02:07:54;;;;;;;;;;;9.30;99.90;;;;;;4998905;28;19933;-76
2023/01/03 02:10:25;;;;;;;;;;;9.20;99.90;;;;;;5002677;28;19929;-76
2023/01/03 02:13:05;;;;;;;;;;;9.20;99.90;;;;;;5000670;28;19940;-76
2023/01/03 02:15:38;;;;;;;;;;;9.20;99.90;;;;;;5002708;28;19934;-77
2023/01/03 02:18:11;;;;;;;;;;;9.20;99.90;;;;;;5001252;28;20449;-76
2023/01/03 02:20:49;;;;;;;;;;;9.20;99.90;;;;;;5000995;28;19937;-76
2023/01/03 02:23:29;;;;;;;;;;;9.20;99.90;;;;;;5014147;28;20625;-77
2023/01/03 02:26:17;;;;;;;;;;;9.20;99.90;;;;;;5017144;28;20740;-76
2023/01/03 02:29:00;;;;;;;;;;;9.20;99.90;;;;;;5016770;28;19949;-76
2023/01/03 02:31:33;;;;;;;;;;;9.20;99.90;;;;;;5017533;28;19953;-75
2023/01/03 02:34:03;;;;;;;;;;;9.10;99.90;;;;;;5018558;28;19929;-76
2023/01/03 02:36:34;;;;;;;;;;;9.10;99.90;;;;;;5016786;28;20055;-74
2023/01/03 02:39:03;;;;;;;;;;;9.10;99.90;;;;;;5008474;28;19937;-76
2023/01/03 02:41:37;;;;;;;;;;;9.10;99.90;;;;;;5010194;28;19937;-77
2023/01/03 02:44:06;;;;;;;;;;;9.00;99.90;;;;;;5007989;28;20397;-77
2023/01/03 02:46:37;;;;;;;;;;;9.10;99.90;;;;;;5004016;28;19937;-76
2023/01/03 02:49:06;;;;;;;;;;;9.00;99.90;;;;;;5002692;28;19933;-77
2023/01/03 02:51:34;;;;;;;;;;;9.00;99.90;;;;;;5001010;28;20449;-77
2023/01/03 02:54:02;;;;;;;;;;;9.00;99.90;;;;;;4999863;28;19929;-76
2023/01/03 02:56:32;;;;;;;;;;;9.00;99.90;;;;;;5000508;28;19987;-77
2023/01/03 02:59:00;;;;;;;;;;;9.00;99.90;;;;;;5003223;28;19933;-77
2023/01/03 03:01:27;;;;;;;;;;;9.00;99.90;;;;;;5000199;28;19951;-77
2023/01/03 03:03:56;;;;;;;;;;;9.00;99.90;;;;;;5002265;28;19929;-77
2023/01/03 03:06:26;;;;;;;;;;;9.00;99.90;;;;;;4999678;28;19937;-77
2023/01/03 03:08:52;;;;;;;;;;;8.90;99.90;;;;;;5001354;28;20036;-76
2023/01/03 03:14:07;;;;;;;;;;;8.90;99.90;;;;;;5001379;28;19933;-77
2023/01/03 03:16:49;;;;;;;;;;;8.90;99.90;;;;;;4998301;28;19940;-77
2023/01/03 03:24:54;;;;;;;;;;;8.80;99.90;;;;;;5001881;28;19972;-76
2023/01/03 03:30:09;;;;;;;;;;;8.80;99.90;;;;;;4997789;28;20036;-77
2023/01/03 03:32:38;;;;;;;;;;;8.80;99.90;;;;;;5004769;28;20013;-77
2023/01/03 03:35:08;;;;;;;;;;;8.80;99.90;;;;;;5000721;28;20311;-76
2023/01/03 03:37:37;;;;;;;;;;;8.80;99.90;;;;;;4999618;28;20397;-77
2023/01/03 03:45:42;;;;;;;;;;;8.70;99.90;;;;;;4999951;28;20527;-76
2023/01/03 03:48:13;;;;;;;;;;;8.70;99.90;;;;;;4998324;28;19953;-77
2023/01/03 03:50:45;;;;;;;;;;;8.70;99.90;;;;;;4998371;28;19933;-76
2023/01/03 03:53:12;;;;;;;;;;;8.70;99.90;;;;;;5000291;28;19940;-75
2023/01/03 03:55:40;;;;;;;;;;;8.70;99.90;;;;;;5001529;28;20603;-77
2023/01/03 03:58:09;;;;;;;;;;;8.70;99.90;;;;;;4999617;28;20326;-77
2023/01/03 04:00:37;;;;;;;;;;;8.70;99.90;;;;;;4995589;28;19930;-77
2023/01/03 04:03:04;;;;;;;;;;;8.70;99.90;;;;;;4996964;28;19934;-76
2023/01/03 04:05:32;;;;;;;;;;;8.70;99.90;;;;;;4999698;28;19936;-76
2023/01/03 04:08:00;;;;;;;;;;;8.60;99.90;;;;;;5000421;28;20192;-77
2023/01/03 04:10:26;;;;;;;;;;;8.60;99.90;;;;;;5000563;28;19930;-76
2023/01/03 04:12:53;;;;;;;;;;;8.60;99.90;;;;;;4996925;28;19929;-77
2023/01/03 04:15:20;;;;;;;;;;;8.60;99.90;;;;;;4995171;28;19940;-74
2023/01/03 04:17:46;;;;;;;;;;;8.60;99.90;;;;;;4994958;28;19952;-77
2023/01/03 04:20:13;;;;;;;;;;;8.60;99.90;;;;;;4998328;28;19940;-77
2023/01/03 04:22:40;;;;;;;;;;;8.60;99.90;;;;;;5004464;28;20353;-77
2023/01/03 04:25:08;;;;;;;;;;;8.60;99.90;;;;;;4997158;28;19929;-75
2023/01/03 04:27:35;;;;;;;;;;;8.50;99.90;;;;;;5006477;28;19937;-77
2023/01/03 04:30:01;;;;;;;;;;;8.50;99.90;;;;;;5000027;28;20283;-77
2023/01/03 04:32:28;;;;;;;;;;;8.50;99.90;;;;;;4996870;28;20364;-76
2023/01/03 04:34:54;;;;;;;;;;;8.50;99.90;;;;;;4999273;28;19999;-77
2023/01/03 04:37:21;;;;;;;;;;;8.50;99.90;;;;;;5001143;28;19933;-76
2023/01/03 04:39:48;;;;;;;;;;;8.50;99.90;;;;;;4998028;28;20357;-77
2023/01/03 04:44:59;;;;;;;;;;;8.40;99.90;;;;;;5000678;28;20421;-75
2023/01/03 04:47:26;;;;;;;;;;;8.40;99.90;;;;;;4993349;28;19929;-76
2023/01/03 04:49:52;;;;;;;;;;;8.40;99.90;;;;;;4998242;28;20337;-76
2023/01/03 04:52:19;;;;;;;;;;;8.40;99.90;;;;;;5001711;28;20009;-77
2023/01/03 04:54:45;;;;;;;;;;;8.40;99.90;;;;;;4995930;28;19934;-76
2023/01/03 04:57:12;;;;;;;;;;;8.40;99.90;;;;;;4996938;28;19933;-76
2023/01/03 04:59:40;;;;;;;;;;;8.30;99.90;;;;;;5000866;28;19934;-77
2023/01/03 05:02:06;;;;;;;;;;;8.30;99.90;;;;;;5000036;28;19952;-76
2023/01/03 05:04:33;;;;;;;;;;;8.30;99.90;;;;;;4996819;28;20853;-77
2023/01/03 05:06:59;;;;;;;;;;;8.20;99.90;;;;;;4999566;28;20394;-76
2023/01/03 05:09:26;;;;;;;;;;;8.30;99.90;;;;;;5002918;28;20257;-78
2023/01/03 05:11:53;;;;;;;;;;;8.30;99.90;;;;;;4996439;28;20011;-76
2023/01/03 05:14:19;;;;;;;;;;;8.20;99.90;;;;;;4998263;28;19937;-76
2023/01/03 05:16:47;;;;;;;;;;;8.20;99.90;;;;;;4994049;28;21584;-75
2023/01/03 05:19:14;;;;;;;;;;;8.20;99.90;;;;;;4998111;28;19936;-76
2023/01/03 05:27:09;;;;;;;;;;;8.20;99.90;;;;;;4998511;28;19979;-76
2023/01/03 05:29:37;;;;;;;;;;;8.10;99.90;;;;;;4995969;28;21549;-76
2023/01/03 05:32:05;;;;;;;;;;;8.10;99.90;;;;;;4996372;28;19936;-76
2023/01/03 05:34:32;;;;;;;;;;;8.10;99.90;;;;;;4994042;28;19933;-76
2023/01/03 05:36:58;;;;;;;;;;;8.10;99.90;;;;;;4998162;28;20416;-76
2023/01/03 05:39:25;;;;;;;;;;;8.10;99.90;;;;;;4996723;28;19934;-75
2023/01/03 05:42:00;;;;;;;;;;;8.00;99.90;;;;;;4995064;28;19934;-76
2023/01/03 05:44:27;;;;;;;;;;;8.00;99.90;;;;;;4995755;28;19941;-76
2023/01/03 05:46:54;;;;;;;;;;;8.00;99.90;;;;;;4995462;28;20529;-75
2023/01/03 05:49:21;;;;;;;;;;;8.00;99.90;;;;;;4996679;28;19933;-75
2023/01/03 05:51:48;;;;;;;;;;;8.00;99.90;;;;;;4997078;28;19995;-76
2023/01/03 05:54:15;;;;;;;;;;;7.90;99.90;;;;;;4994952;28;20428;-76
2023/01/03 05:56:42;;;;;;;;;;;7.90;99.90;;;;;;4995315;28;19933;-76
2023/01/03 05:59:08;;;;;;;;;;;7.80;99.90;;;;;;4985524;28;19930;-75
2023/01/03 06:01:35;;;;;;;;;;;7.60;99.90;;;;;;4990691;28;19933;-76
2023/01/03 06:04:01;;;;;;;;;;;7.60;99.90;;;;;;4994275;28;19929;-77
2023/01/03 06:06:29;;;;;;;;;;;7.60;99.90;;;;;;4997981;28;19944;-76
2023/01/03 06:08:56;;;;;;;;;;;7.50;99.90;;;;;;5001667;28;19936;-77
2023/01/03 06:11:22;;;;;;;;;;;7.60;99.90;;;;;;5001648;28;20752;-78
2023/01/03 06:13:49;;;;;;;;;;;7.60;99.90;;;;;;5002667;28;20394;-77
2023/01/03 06:19:01;;;;;;;;;;;7.60;99.90;;;;;;5002811;28;20305;-78
2023/01/03 06:21:29;;;;;;;;;;;7.60;99.90;;;;;;5002105;28;19929;-78
2023/01/03 06:23:56;;;;;;;;;;;7.60;99.90;;;;;;5009920;28;20675;-78
2023/01/03 06:26:23;;;;;;;;;;;7.60;99.90;;;;;;5001955;28;19937;-78
2023/01/03 06:28:50;;;;;;;;;;;7.60;99.90;;;;;;5009537;28;19929;-77
2023/01/03 06:31:17;;;;;;;;;;;7.60;99.90;;;;;;5003700;28;19940;-76
2023/01/03 06:33:44;;;;;;;;;;;7.60;99.90;;;;;;5004515;28;19976;-77
2023/01/03 06:36:11;;;;;;;;;;;7.50;99.90;;;;;;5003369;28;19929;-78
2023/01/03 06:38:39;;;;;;;;;;;7.60;99.90;;;;;;5003066;28;19929;-77
2023/01/03 06:41:06;;;;;;;;;;;7.50;99.90;;;;;;5001495;28;19933;-77
2023/01/03 06:43:33;;;;;;;;;;;7.60;99.90;;;;;;5007736;28;19940;-77
2023/01/03 06:54:18;;;;;;;;;;;7.50;99.90;;;;;;5007394;28;19992;-77
2023/01/03 06:56:44;;;;;;;;;;;7.50;99.90;;;;;;5003265;28;20565;-76
2023/01/03 06:59:11;;;;;;;;;;;7.50;99.90;;;;;;5002162;28;20076;-76
2023/01/03 07:01:38;;;;;;;;;;;7.50;99.90;;;;;;4999270;28;19933;-77
2023/01/03 07:04:04;;;;;;;;;;;7.50;99.90;;;;;;4998331;28;19940;-76
2023/01/03 07:06:31;;;;;;;;;;;7.40;99.90;;;;;;4998324;28;20276;-77
2023/01/03 07:08:57;;;;;;;;;;;7.50;99.90;;;;;;4994675;28;20321;-76
2023/01/03 07:11:25;;;;;;;;;;;7.40;99.90;;;;;;5000834;28;19929;-76
2023/01/03 07:13:57;;;;;;;;;;;7.40;99.90;;;;;;5005736;28;19933;-78
2023/01/03 07:16:24;;;;;;;;;;;7.40;99.90;;;;;;5002745;28;19932;-76
2023/01/03 07:18:51;;;;;;;;;;;7.40;99.90;;;;;;5006798;28;19929;-77
2023/01/03 07:21:18;;;;;;;;;;;7.40;99.90;;;;;;5004892;28;19979;-77
2023/01/03 07:23:44;;;;;;;;;;;7.40;99.90;;;;;;5007993;28;19987;-77
2023/01/03 07:26:11;;;;;;;;;;;7.40;99.90;;;;;;5004806;28;19942;-77
2023/01/03 07:28:39;;;;;;;;;;;7.40;99.90;;;;;;5004141;28;19937;-76
2023/01/03 07:31:06;;;;;;;;;;;7.40;99.90;;;;;;4999628;28;19929;-77
2023/01/03 07:33:33;;;;;;;;;;;7.30;99.90;;;;;;4998114;28;19980;-77
2023/01/03 07:36:00;;;;;;;;;;;7.30;99.90;;;;;;5003892;28;19988;-76
2023/01/03 07:38:27;;;;;;;;;;;7.30;99.90;;;;;;5001785;28;19969;-76
2023/01/03 07:40:55;;;;;;;;;;;7.30;99.90;;;;;;5000343;28;19930;-78
2023/01/03 07:43:36;;;;;;;;;;;7.30;99.90;;;;;;5003367;28;19933;-78
2023/01/03 07:46:12;;;;;;;;;;;7.30;99.90;;;;;;5002278;28;19925;-78
2023/01/03 07:48:38;;;;;;;;;;;7.20;99.90;;;;;;5003747;28;19933;-78
2023/01/03 07:51:05;;;;;;;;;;;7.20;99.90;;;;;;5003301;28;20064;-76
2023/01/03 07:53:33;;;;;;;;;;;7.20;99.90;;;;;;5003899;28;19937;-78
2023/01/03 07:56:03;;;;;;;;;;;7.20;99.90;;;;;;5003783;28;19975;-78
2023/01/03 07:58:31;;;;;;;;;;;7.20;99.90;;;;;;5008899;28;19952;-78
2023/01/03 08:01:02;;;;;;;;;;;7.20;99.90;;;;;;4998650;28;19959;-75
2023/01/03 08:03:30;;;;;;;;;;;7.10;99.90;;;;;;4996122;28;20386;-78
2023/01/03 08:05:59;;;;;;;;;;;7.20;99.90;;;;;;5002023;28;19930;-79
2023/01/03 08:08:25;;;;;;;;;;;7.10;99.90;;;;;;4998607;28;19929;-78
2023/01/03 08:13:36;;;;;;;;;;;7.10;99.90;;;;;;4998735;28;19935;-78
2023/01/03 08:16:03;;;;;;;;;;;7.10;99.90;;;;;;5000024;28;19940;-75
2023/01/03 08:18:31;;;;;;;;;;;7.10;99.90;;;;;;4998769;28;20017;-77
2023/01/03 08:20:57;;;;;;;;;;;7.00;99.90;;;;;;4996787;28;20565;-74
2023/01/03 08:23:25;;;;;;;;;;;7.00;99.90;;;;;;5008044;28;19956;-78
2023/01/03 08:25:51;;;;;;;;;;;7.00;99.90;;;;;;5005456;28;19929;-75
2023/01/03 08:28:18;;;;;;;;;;;7.10;99.90;;;;;;5007516;28;20604;-77
2023/01/03 08:30:47;;;;;;;;;;;7.10;99.90;;;;;;5008479;28;19945;-78
2023/01/03 08:33:14;;;;;;;;;;;7.10;99.90;;;;;;5002555;28;20364;-78
2023/01/03 08:35:45;;;;;;;;;;;7.20;99.90;;;;;;5004579;28;19987;-76
2023/01/03 08:38:16;;;;;;;;;;;7.20;99.90;;;;;;5004213;28;19936;-76
2023/01/03 08:40:44;;;;;;;;;;;7.30;99.90;;;;;;5004376;28;19933;-77
2023/01/03 08:43:10;;;;;;;;;;;7.40;99.90;;;;;;5006130;28;19929;-77
2023/01/03 08:45:38;;;;;;;;;;;7.40;99.90;;;;;;5005103;28;20037;-77
2023/01/03 08:48:05;;;;;;;;;;;7.40;99.90;;;;;;5005042;28;19936;-78
2023/01/03 08:50:32;;;;;;;;;;;7.50;99.90;;;;;;5004771;28;19937;-78
2023/01/03 08:52:59;;;;;;;;;;;7.50;99.90;;;;;;5005654;28;19934;-77
2023/01/03 08:55:26;;;;;;;;;;;7.50;99.90;;;;;;5007730;28;19940;-78
2023/01/03 08:57:52;;;;;;;;;;;7.60;99.90;;;;;;5005261;28;20021;-78
2023/01/03 09:00:19;;;;;;;;;;;7.60;99.90;;;;;;5005587;28;20597;-78
2023/01/03 09:02:46;;;;;;;;;;;7.60;99.90;;;;;;5005063;28;19977;-77
2023/01/03 09:05:12;;;;;;;;;;;7.60;99.90;;;;;;5003132;28;20337;-77
2023/01/03 09:07:39;;;;;;;;;;;7.70;99.90;;;;;;4997830;28;20417;-77
2023/01/03 09:10:07;;;;;;;;;;;7.70;99.90;;;;;;4980569;28;19929;-77
2023/01/03 09:12:34;;;;;;;;;;;7.70;99.90;;;;;;4986294;28;20463;-77
2023/01/03 09:15:00;;;;;;;;;;;7.70;99.90;;;;;;4986644;28;20465;-77
2023/01/03 09:17:28;;;;;;;;;;;7.80;99.90;;;;;;4988113;28;19942;-77
2023/01/03 09:19:54;;;;;;;;;;;7.80;99.90;;;;;;4990579;28;19937;-77
2023/01/03 09:22:21;;;;;;;;;;;7.80;99.90;;;;;;4990467;28;20032;-77
2023/01/03 09:24:47;;;;;;;;;;;7.80;99.90;;;;;;4983284;28;19933;-78
2023/01/03 09:27:15;;;;;;;;;;;7.90;99.90;;;;;;4986794;28;19934;-77
2023/01/03 09:29:42;;;;;;;;;;;7.90;99.90;;;;;;4999844;28;19933;-77
2023/01/03 09:32:09;;;;;;;;;;;7.90;99.90;;;;;;4989212;28;20196;-77
2023/01/03 09:34:35;;;;;;;;;;;7.90;99.90;;;;;;4996119;28;20016;-77
2023/01/03 09:37:03;;;;;;;;;;;7.90;99.90;;;;;;4991966;28;19929;-77
2023/01/03 09:39:29;;;;;;;;;;;8.00;99.90;;;;;;4994111;28;19933;-77
2023/01/03 09:44:41;;;;;;;;;;;8.00;99.90;;;;;;4998976;28;19936;-78
2023/01/03 09:47:10;;;;;;;;;;;8.00;99.90;;;;;;4985081;28;20076;-78
2023/01/03 09:49:39;;;;;;;;;;;8.10;99.90;;;;;;4990614;28;19929;-78
2023/01/03 10:06:07;;;;;;;;;;;8.20;99.90;;;;;;4977706;28;20001;-77
2023/01/03 10:08:41;;;;;;;;;;;8.30;99.90;;;;;;5001489;28;19937;-77
2023/01/03 10:11:08;;;;;;;;;;;8.30;99.90;;;;;;4996890;28;19953;-78
2023/01/03 10:13:47;;;;;;;;;;;8.30;99.90;;;;;;5000813;28;19932;-78
2023/01/03 10:16:19;;;;;;;;;;;8.30;99.90;;;;;;4993093;28;19929;-77
2023/01/03 10:18:53;;;;;;;;;;;8.30;99.90;;;;;;4996670;28;20341;-77
2023/01/03 10:21:22;;;;;;;;;;;8.40;99.90;;;;;;4994189;28;20622;-78
2023/01/03 10:23:49;;;;;;;;;;;8.40;99.90;;;;;;5000236;28;19937;-78
2023/01/03 10:26:16;;;;;;;;;;;8.40;99.90;;;;;;4998145;28;19983;-77
2023/01/03 10:28:43;;;;;;;;;;;8.40;99.90;;;;;;4999451;28;19933;-78
2023/01/03 10:31:17;;;;;;;;;;;8.40;99.90;;;;;;4994244;28;20456;-77
2023/01/03 10:33:46;;;;;;;;;;;8.40;99.90;;;;;;4997553;28;19937;-78
2023/01/03 10:36:13;;;;;;;;;;;8.40;99.90;;;;;;4998228;28;19933;-77
2023/01/03 10:38:39;;;;;;;;;;;8.40;99.90;;;;;;4999865;28;19983;-78
2023/01/03 10:41:16;;;;;;;;;;;8.40;99.90;;;;;;4996669;28;19936;-77
2023/01/03 10:43:43;;;;;;;;;;;8.40;99.90;;;;;;4997261;28;19929;-78
2023/01/03 10:46:14;;;;;;;;;;;8.40;99.90;;;;;;4999974;28;20040;-77
2023/01/03 10:48:41;;;;;;;;;;;8.40;99.90;;;;;;4992597;28;19941;-78
2023/01/03 10:51:22;;;;;;;;;;;8.40;99.90;;;;;;4999371;28;20273;-77
2023/01/03 10:53:50;;;;;;;;;;;8.40;99.90;;;;;;4995761;28;19933;-77
2023/01/03 10:56:17;;;;;;;;;;;8.50;99.90;;;;;;4997666;28;19929;-78
2023/01/03 10:58:43;;;;;;;;;;;8.40;99.90;;;;;;5003097;28;20311;-79
2023/01/03 11:01:11;;;;;;;;;;;8.40;99.90;;;;;;4996487;28;19933;-78
2023/01/03 11:03:43;;;;;;;;;;;8.40;99.90;;;;;;4995223;28;19944;-78
2023/01/03 11:06:13;;;;;;;;;;;8.50;99.90;;;;;;4994462;28;20372;-78
2023/01/03 11:08:44;;;;;;;;;;;8.50;99.90;;;;;;4993990;28;19991;-77
2023/01/03 11:11:27;;;;;;;;;;;8.50;99.90;;;;;;4978178;28;20356;-78
2023/01/03 11:14:05;;;;;;;;;;;8.50;99.90;;;;;;4992910;28;20585;-77
2023/01/03 11:16:32;;;;;;;;;;;8.50;99.90;;;;;;4999198;28;19929;-77
2023/01/03 11:18:59;;;;;;;;;;;8.60;99.90;;;;;;4992634;28;19935;-78
2023/01/03 11:21:29;;;;;;;;;;;8.50;99.90;;;;;;4986425;28;19940;-77
2023/01/03 11:24:01;;;;;;;;;;;8.60;99.90;;;;;;4988741;28;19941;-76
2023/01/03 11:26:35;;;;;;;;;;;8.60;99.90;;;;;;4990902;28;19988;-78
2023/01/03 11:29:12;;;;;;;;;;;8.60;99.90;;;;;;4992142;28;19972;-79
2023/01/03 11:31:43;;;;;;;;;;;8.60;99.90;;;;;;4990387;28;20212;-78
2023/01/03 11:34:17;;;;;;;;;;;8.60;99.90;;;;;;4990592;28;19934;-79
2023/01/03 11:36:48;;;;;;;;;;;8.60;99.90;;;;;;4992521;28;19937;-77
2023/01/03 11:39:20;;;;;;;;;;;8.60;99.90;;;;;;4991241;28;19937;-77
2023/01/03 11:41:58;;;;;;;;;;;8.60;99.90;;;;;;4997295;28;19929;-77
2023/01/03 11:44:36;;;;;;;;;;;8.60;99.90;;;;;;4991247;28;19940;-78
2023/01/03 11:47:08;;;;;;;;;;;8.70;99.90;;;;;;4991708;28;19929;-77
2023/01/03 11:49:41;;;;;;;;;;;8.60;99.90;;;;;;4988028;28;19936;-77
2023/01/03 11:52:17;;;;;;;;;;;8.60;99.90;;;;;;4990182;28;19929;-78
2023/01/03 11:55:03;;;;;;;;;;;8.60;99.90;;;;;;4991775;28;19926;-78
2023/01/03 11:57:36;;;;;;;;;;;8.60;99.90;;;;;;4989934;28;20047;-77
2023/01/03 12:00:08;;;;;;;;;;;8.70;99.90;;;;;;4992433;28;19945;-77
2023/01/03 12:02:55;;;;;;;;;;;8.70;99.90;;;;;;4991862;28;19969;-76
2023/01/03 12:05:31;;;;;;;;;;;8.70;99.90;;;;;;4995031;28;19929;-77
2023/01/03 12:08:00;;;;;;;;;;;8.70;99.90;;;;;;4999677;28;19933;-78
2023/01/03 12:10:32;;;;;;;;;;;8.70;99.90;;;;;;5004232;28;19949;-78
2023/01/03 12:13:10;;;;;;;;;;;8.70;99.90;;;;;;5002088;28;19937;-77
2023/01/03 12:15:41;;;;;;;;;;;8.70;99.90;;;;;;5006321;28;20209;-78
2023/01/03 12:18:13;;;;;;;;;;;8.80;99.90;;;;;;5004121;28;19929;-77
2023/01/03 12:20:43;;;;;;;;;;;8.80;99.90;;;;;;4978897;28;19934;-77
2023/01/03 12:23:15;;;;;;;;;;;8.80;99.90;;;;;;4993486;28;20795;-78
2023/01/03 12:25:43;;;;;;;;;;;8.80;99.90;;;;;;5005892;28;19939;-78
2023/01/03 12:28:16;;;;;;;;;;;8.80;99.90;;;;;;5004788;28;19937;-78
2023/01/03 12:30:44;;;;;;;;;;;8.80;99.90;;;;;;5005189;28;20399;-77
2023/01/03 12:33:20;;;;;;;;;;;8.90;99.90;;;;;;5001273;28;20547;-76
2023/01/03 12:35:48;;;;;;;;;;;8.90;99.90;;;;;;4996109;28;20004;-79
2023/01/03 12:38:16;;;;;;;;;;;9.00;99.90;;;;;;5003270;28;19929;-77
2023/01/03 12:40:46;;;;;;;;;;;9.00;99.90;;;;;;5002359;28;19929;-76
2023/01/03 12:43:16;;;;;;;;;;;9.10;99.90;;;;;;5005192;28;19960;-77
2023/01/03 12:45:47;;;;;;;;;;;9.10;99.90;;;;;;5005982;28;20582;-78
2023/01/03 12:48:44;;;;;;;;;;;9.10;99.90;;;;;;5003333;28;19933;-79
2023/01/03 12:51:11;;;;;;;;;;;9.20;99.90;;;;;;4942257;28;20500;-77
2023/01/03 12:53:39;;;;;;;;;;;9.10;99.80;;;;;;4986339;28;19929;-77
2023/01/03 12:56:18;;;;;;;;;;;9.20;99.80;;;;;;5001647;28;20000;-77
2023/01/03 12:58:52;;;;;;;;;;;9.20;99.70;;;;;;4998888;28;19941;-77
2023/01/03 13:01:23;;;;;;;;;;;9.20;99.60;;;;;;5004495;28;19941;-77
2023/01/03 13:03:54;;;;;;;;;;;9.20;99.60;;;;;;5006182;28;19936;-77
2023/01/03 13:06:23;;;;;;;;;;;9.30;99.90;;;;;;5005267;28;19960;-77
2023/01/03 13:08:52;;;;;;;;;;;9.30;99.50;;;;;;5009538;28;19929;-76
2023/01/03 13:11:21;;;;;;;;;;;9.30;99.40;;;;;;5008920;28;19937;-76
2023/01/03 13:13:52;;;;;;;;;;;9.40;99.40;;;;;;5012950;28;19920;-77
2023/01/03 13:16:37;;;;;;;;;;;9.40;99.30;;;;;;5009569;28;19929;-78
2023/01/03 13:19:18;;;;;;;;;;;9.40;99.20;;;;;;5005794;28;20355;-76
2023/01/03 13:21:59;;;;;;;;;;;9.50;99.10;;;;;;5014671;28;19926;-76
2023/01/03 13:24:42;;;;;;;;;;;9.50;99.00;;;;;;5008357;28;19934;-78
2023/01/03 13:27:22;;;;;;;;;;;9.60;98.90;;;;;;5006981;28;19933;-78
2023/01/03 13:29:56;;;;;;;;;;;9.50;98.90;;;;;;5007216;28;19983;-75
2023/01/03 13:32:25;;;;;;;;;;;9.60;98.90;;;;;;5007097;28;20650;-76
2023/01/03 13:35:10;;;;;;;;;;;9.60;98.90;;;;;;5006173;28;20230;-76
2023/01/03 13:37:43;;;;;;;;;;;9.60;98.90;;;;;;5006805;28;19939;-77
2023/01/03 13:40:29;;;;;;;;;;;9.60;99.00;;;;;;5006976;28;19941;-77
2023/01/03 13:43:03;;;;;;;;;;;9.60;99.00;;;;;;5002350;28;19935;-78
2023/01/03 13:45:53;;;;;;;;;;;9.60;99.00;;;;;;5003535;28;20189;-78
2023/01/03 13:48:25;;;;;;;;;;;9.70;99.00;;;;;;5005915;28;19929;-77
2023/01/03 13:51:10;;;;;;;;;;;9.80;98.90;;;;;;5002115;28;19949;-78
2023/01/03 13:53:37;;;;;;;;;;;9.80;98.80;;;;;;5001798;28;20030;-78
2023/01/03 13:56:20;;;;;;;;;;;9.90;98.50;;;;;;5003852;28;19992;-77
2023/01/03 13:58:48;;;;;;;;;;;10.00;98.30;;;;;;5003612;28;19938;-78
2023/01/03 14:01:21;;;;;;;;;;;10.10;98.20;;;;;;5004974;28;20005;-77
2023/01/03 14:03:59;;;;;;;;;;;10.20;98.00;;;;;;5011752;28;19933;-78
2023/01/03 14:06:41;;;;;;;;;;;10.30;97.80;;;;;;5000829;28;19936;-78
2023/01/03 14:09:21;;;;;;;;;;;10.30;97.60;;;;;;4997973;28;19937;-79
2023/01/03 14:12:08;;;;;;;;;;;10.40;97.50;;;;;;5006294;28;19995;-77
2023/01/03 14:14:37;;;;;;;;;;;10.40;97.20;;;;;;4966713;28;19940;-78
2023/01/03 14:17:04;;;;;;;;;;;10.50;97.20;;;;;;4987054;28;20766;-78
2023/01/03 14:19:34;;;;;;;;;;;10.50;97.20;;;;;;4987451;28;20080;-78
2023/01/03 14:22:02;;;;;;;;;;;10.60;97.10;;;;;;4985342;28;20031;-78
2023/01/03 14:24:29;;;;;;;;;;;10.60;97.00;;;;;;4991530;28;19937;-79
2023/01/03 14:27:03;;;;;;;;;;;10.60;96.90;;;;;;5002929;28;19940;-77
2023/01/03 14:29:30;;;;;;;;;;;10.60;96.80;;;;;;5001462;28;20020;-78
2023/01/03 14:31:58;;;;;;;;;;;10.60;96.70;;;;;;5001028;28;19933;-78
2023/01/03 14:34:28;;;;;;;;;;;10.60;96.70;;;;;;5001653;28;19934;-77
2023/01/03 14:37:01;;;;;;;;;;;10.60;96.80;;;;;;4999883;28;19930;-76
2023/01/03 14:39:31;;;;;;;;;;;10.50;96.80;;;;;;5007520;28;19930;-78
2023/01/03 14:41:58;;;;;;;;;;;10.50;96.90;;;;;;5008028;28;19973;-78
2023/01/03 14:44:27;;;;;;;;;;;10.50;97.00;;;;;;5005213;28;20028;-77
2023/01/03 14:46:55;;;;;;;;;;;10.40;97.10;;;;;;5002794;28;19930;-78
2023/01/03 14:49:23;;;;;;;;;;;10.30;96.40;;;;;;5005761;28;19936;-78
2023/01/03 14:51:50;;;;;;;;;;;10.30;96.20;;;;;;5003673;28;20020;-77
2023/01/03 14:54:19;;;;;;;;;;;10.20;96.20;;;;;;5005567;28;19933;-77
2023/01/03 14:56:46;;;;;;;;;;;10.20;96.30;;;;;;5004486;28;20019;-77
2023/01/03 14:59:14;;;;;;;;;;;10.10;96.40;;;;;;5007984;28;19935;-77
2023/01/03 15:01:41;;;;;;;;;;;10.10;96.70;;;;;;5000613;28;19995;-77
2023/01/03 15:04:11;;;;;;;;;;;10.10;97.00;;;;;;4999929;28;19930;-78
2023/01/03 15:06:37;;;;;;;;;;;10.00;97.20;;;;;;5005598;28;19996;-78
2023/01/03 15:09:17;;;;;;;;;;;10.00;97.40;;;;;;5008102;28;19937;-78
2023/01/03 15:11:58;;;;;;;;;;;9.90;97.50;;;;;;5005823;28;19940;-77
2023/01/03 15:14:25;;;;;;;;;;;9.90;97.70;;;;;;5008086;28;19945;-77
2023/01/03 15:16:59;;;;;;;;;;;9.80;97.60;;;;;;5000374;28;19925;-77
2023/01/03 15:19:28;;;;;;;;;;;9.80;96.30;;;;;;5003487;28;19934;-77
2023/01/03 15:22:05;;;;;;;;;;;9.80;96.70;;;;;;4999362;28;20345;-77
2023/01/03 15:24:32;;;;;;;;;;;9.80;97.20;;;;;;5003299;28;19930;-76
2023/01/03 15:27:00;;;;;;;;;;;9.80;97.60;;;;;;5003167;28;19941;-75
2023/01/03 15:29:43;;;;;;;;;;;9.90;97.90;;;;;;5003624;28;19951;-77
2023/01/03 15:32:11;;;;;;;;;;;9.80;98.00;;;;;;4998416;28;20266;-76
2023/01/03 15:34:40;;;;;;;;;;;9.90;98.20;;;;;;4997226;28;20496;-75
2023/01/03 15:37:11;;;;;;;;;;;9.90;98.30;;;;;;4992750;28;19937;-77
2023/01/03 15:39:40;;;;;;;;;;;9.90;98.40;;;;;;4992026;28;19980;-76
2023/01/03 15:45:10;;;;;;;;;;;10.00;98.50;;;;;;4969831;28;19975;-76
2023/01/03 15:47:37;;;;;;;;;;;10.00;98.50;;;;;;4966213;28;19934;-76